Terminal Aerodrome Forecast
Issued by NWS

Home | Current Version | Previous Version | Graphics & Text | Print | Product List | Glossary On
Versions: 1 2 3 4 5 6 7 8 9 10 11 12 13 14 15
000
FTUS43 KBIS 072300
TAFDIK
TAF
KDIK 072339Z 0800/0824 31011KT P6SM VCSH SCT050 BKN080
      TEMPO 0800/0802 30017G25KT
     FM080200 30008KT P6SM SCT060
     FM081400 31012KT P6SM SCT050=

USA.gov is the U.S. government's official web portal to all federal, state and local government web resources and services.